<?xml version="1.0" encoding="UTF-8" standalone="no" ?>
<gpx xmlns="http://www.topografix.com/GPX/1/1" xmlns:xsi="http://www.w3.org/2001/XMLSchema-instance" xsi:schemaLocation="http://www.topografix.com/GPX/1/1 http://www.topografix.com/GPX/1/1/gpx.xsd" version="1.1" creator="VisuGPX - https://www.visugpx.com">
  <metadata>
    <name>Argentina</name>
    <desc><![CDATA[Downloaded from eMap Software Version 2.75]]></desc>
  </metadata>
  <trk>
    <name><![CDATA[Argentina_28]]></name>
    <extensions>
      <line xmlns="http://www.topografix.com/GPX/gpx_style/0/2">
        <color>ff0000</color>
        <opacity>0.78</opacity>
        <width>0.6000</width>
      </line>
    </extensions>
    <trkseg>
      <trkpt lat="-27.91437" lon="-63.88805">
        <ele>195.765625</ele>
        <time>2005-12-12T18:16:49Z</time>
      </trkpt>
      <trkpt lat="-27.91592" lon="-63.88621">
        <ele>191.439575</ele>
        <time>2005-12-12T18:17:03Z</time>
      </trkpt>
      <trkpt lat="-27.91658" lon="-63.88565">
        <ele>191.439575</ele>
        <time>2005-12-12T18:17:10Z</time>
      </trkpt>
      <trkpt lat="-27.91804" lon="-63.8846">
        <ele>191.439575</ele>
        <time>2005-12-12T18:17:30Z</time>
      </trkpt>
      <trkpt lat="-27.91965" lon="-63.88704">
        <ele>191.439575</ele>
        <time>2005-12-12T18:17:45Z</time>
      </trkpt>
      <trkpt lat="-27.92036" lon="-63.88749">
        <ele>191.439575</ele>
        <time>2005-12-12T18:17:55Z</time>
      </trkpt>
      <trkpt lat="-27.92156" lon="-63.88831">
        <ele>191.439575</ele>
        <time>2005-12-12T18:18:08Z</time>
      </trkpt>
      <trkpt lat="-27.92274" lon="-63.88915">
        <ele>191.439575</ele>
        <time>2005-12-12T18:18:23Z</time>
      </trkpt>
      <trkpt lat="-27.92441" lon="-63.89031">
        <ele>191.439575</ele>
        <time>2005-12-12T18:18:45Z</time>
      </trkpt>
      <trkpt lat="-27.92474" lon="-63.8905">
        <ele>191.439575</ele>
        <time>2005-12-12T18:18:53Z</time>
      </trkpt>
      <trkpt lat="-27.92519" lon="-63.8908">
        <ele>191.439575</ele>
        <time>2005-12-12T18:19:13Z</time>
      </trkpt>
      <trkpt lat="-27.92525" lon="-63.89084">
        <ele>191.439575</ele>
        <time>2005-12-12T18:19:20Z</time>
      </trkpt>
      <trkpt lat="-27.92523" lon="-63.89082">
        <ele>191.439575</ele>
        <time>2005-12-12T18:19:21Z</time>
      </trkpt>
      <trkpt lat="-27.92523" lon="-63.8908">
        <ele>191.439575</ele>
        <time>2005-12-12T18:19:42Z</time>
      </trkpt>
      <trkpt lat="-27.92523" lon="-63.8908">
        <ele>191.439575</ele>
        <time>2005-12-12T18:19:44Z</time>
      </trkpt>
      <trkpt lat="-27.92517" lon="-63.89073">
        <ele>191.439575</ele>
        <time>2005-12-12T18:20:00Z</time>
      </trkpt>
      <trkpt lat="-27.92527" lon="-63.8905">
        <ele>190.958984</ele>
        <time>2005-12-12T18:20:59Z</time>
      </trkpt>
      <trkpt lat="-27.92549" lon="-63.89009">
        <ele>190.478394</ele>
        <time>2005-12-12T18:21:13Z</time>
      </trkpt>
      <trkpt lat="-27.92587" lon="-63.88943">
        <ele>190.478394</ele>
        <time>2005-12-12T18:21:29Z</time>
      </trkpt>
      <trkpt lat="-27.92654" lon="-63.88822">
        <ele>189.997681</ele>
        <time>2005-12-12T18:21:50Z</time>
      </trkpt>
      <trkpt lat="-27.92692" lon="-63.88754">
        <ele>189.997681</ele>
        <time>2005-12-12T18:22:04Z</time>
      </trkpt>
      <trkpt lat="-27.92699" lon="-63.88737">
        <ele>189.997681</ele>
        <time>2005-12-12T18:22:09Z</time>
      </trkpt>
      <trkpt lat="-27.92665" lon="-63.88711">
        <ele>189.997681</ele>
        <time>2005-12-12T18:22:20Z</time>
      </trkpt>
      <trkpt lat="-27.92615" lon="-63.88683">
        <ele>189.516968</ele>
        <time>2005-12-12T18:22:34Z</time>
      </trkpt>
      <trkpt lat="-27.92615" lon="-63.88672">
        <ele>189.516968</ele>
        <time>2005-12-12T18:22:39Z</time>
      </trkpt>
      <trkpt lat="-27.92617" lon="-63.88661">
        <ele>189.516968</ele>
        <time>2005-12-12T18:22:42Z</time>
      </trkpt>
      <trkpt lat="-27.92658" lon="-63.88588">
        <ele>189.036377</ele>
        <time>2005-12-12T18:22:53Z</time>
      </trkpt>
      <trkpt lat="-27.92718" lon="-63.88479">
        <ele>188.555786</ele>
        <time>2005-12-12T18:23:03Z</time>
      </trkpt>
      <trkpt lat="-27.92789" lon="-63.8835">
        <ele>188.555786</ele>
        <time>2005-12-12T18:23:15Z</time>
      </trkpt>
      <trkpt lat="-27.92802" lon="-63.88325">
        <ele>188.555786</ele>
        <time>2005-12-12T18:23:23Z</time>
      </trkpt>
      <trkpt lat="-27.92834" lon="-63.88262">
        <ele>188.075073</ele>
        <time>2005-12-12T18:23:32Z</time>
      </trkpt>
      <trkpt lat="-27.92901" lon="-63.8814">
        <ele>188.075073</ele>
        <time>2005-12-12T18:23:43Z</time>
      </trkpt>
      <trkpt lat="-27.92976" lon="-63.87998">
        <ele>188.075073</ele>
        <time>2005-12-12T18:23:54Z</time>
      </trkpt>
      <trkpt lat="-27.92993" lon="-63.87968">
        <ele>187.59436</ele>
        <time>2005-12-12T18:24:00Z</time>
      </trkpt>
      <trkpt lat="-27.93016" lon="-63.87923">
        <ele>187.59436</ele>
        <time>2005-12-12T18:24:10Z</time>
      </trkpt>
      <trkpt lat="-27.93066" lon="-63.87831">
        <ele>187.59436</ele>
        <time>2005-12-12T18:24:20Z</time>
      </trkpt>
      <trkpt lat="-27.93135" lon="-63.87704">
        <ele>187.59436</ele>
        <time>2005-12-12T18:24:30Z</time>
      </trkpt>
      <trkpt lat="-27.93195" lon="-63.87595">
        <ele>187.11377</ele>
        <time>2005-12-12T18:24:40Z</time>
      </trkpt>
      <trkpt lat="-27.93205" lon="-63.87576">
        <ele>187.11377</ele>
        <time>2005-12-12T18:24:46Z</time>
      </trkpt>
      <trkpt lat="-27.93229" lon="-63.87533">
        <ele>187.11377</ele>
        <time>2005-12-12T18:24:57Z</time>
      </trkpt>
      <trkpt lat="-27.93283" lon="-63.87434">
        <ele>186.633179</ele>
        <time>2005-12-12T18:25:08Z</time>
      </trkpt>
      <trkpt lat="-27.93358" lon="-63.87284">
        <ele>186.633179</ele>
        <time>2005-12-12T18:25:20Z</time>
      </trkpt>
      <trkpt lat="-27.93448" lon="-63.87104">
        <ele>186.633179</ele>
        <time>2005-12-12T18:25:32Z</time>
      </trkpt>
      <trkpt lat="-27.93577" lon="-63.8687">
        <ele>186.152466</ele>
        <time>2005-12-12T18:25:45Z</time>
      </trkpt>
      <trkpt lat="-27.93729" lon="-63.86589">
        <ele>186.152466</ele>
        <time>2005-12-12T18:26:00Z</time>
      </trkpt>
      <trkpt lat="-27.93808" lon="-63.86445">
        <ele>185.671753</ele>
        <time>2005-12-12T18:26:10Z</time>
      </trkpt>
      <trkpt lat="-27.93834" lon="-63.86396">
        <ele>185.671753</ele>
        <time>2005-12-12T18:26:17Z</time>
      </trkpt>
      <trkpt lat="-27.93843" lon="-63.86365">
        <ele>185.671753</ele>
        <time>2005-12-12T18:26:26Z</time>
      </trkpt>
      <trkpt lat="-27.93838" lon="-63.86344">
        <ele>185.671753</ele>
        <time>2005-12-12T18:26:31Z</time>
      </trkpt>
      <trkpt lat="-27.93838" lon="-63.86329">
        <ele>185.671753</ele>
        <time>2005-12-12T18:26:34Z</time>
      </trkpt>
      <trkpt lat="-27.93873" lon="-63.86247">
        <ele>185.671753</ele>
        <time>2005-12-12T18:26:57Z</time>
      </trkpt>
    </trkseg>
  </trk>
</gpx>